Time;durP1;ratioP1;P1;durP2;ratioP2;P2;SDS_P1;SDS_P2;PMS_P1;PMS_P2;Temp;Humidity;BMP_temperature;BMP_pressure;BME280_temperature;BME280_humidity;BME280_pressure;Samples;Min_cycle;Max_cycle;Signal;HPM_P1;HPM_P2
2023/03/05 00:01:38;;;;;;;;;;;3.80;99.90;;;;;;4879731;29;19935;-73
2023/03/05 00:04:04;;;;;;;;;;;3.80;99.90;;;;;;4848600;29;19928;-72
2023/03/05 00:06:31;;;;;;;;;;;3.70;99.90;;;;;;4864332;29;20335;-71
2023/03/05 00:08:57;;;;;;;;;;;3.80;99.90;;;;;;4864091;29;20118;-73
2023/03/05 00:11:24;;;;;;;;;;;3.80;99.90;;;;;;4863696;29;19978;-71
2023/03/05 00:13:50;;;;;;;;;;;3.80;99.90;;;;;;4879327;29;19935;-72
2023/03/05 00:16:16;;;;;;;;;;;3.90;99.90;;;;;;4848390;29;19928;-71
2023/03/05 00:18:41;;;;;;;;;;;3.90;99.90;;;;;;4863877;29;19983;-71
2023/03/05 00:21:26;;;;;;;;;;;3.80;99.90;;;;;;4863586;29;20320;-71
2023/03/05 00:23:52;;;;;;;;;;;3.80;99.90;;;;;;4863661;29;19954;-71
2023/03/05 00:26:18;;;;;;;;;;;3.80;99.90;;;;;;4848211;29;20044;-71
2023/03/05 00:28:48;;;;;;;;;;;3.80;99.90;;;;;;4863637;29;19927;-71
2023/03/05 00:31:14;;;;;;;;;;;3.80;99.90;;;;;;4847777;29;19979;-70
2023/03/05 00:33:40;;;;;;;;;;;4.10;99.90;;;;;;4863698;29;20372;-71
2023/03/05 00:36:06;;;;;;;;;;;3.80;99.90;;;;;;4832518;29;19938;-70
2023/03/05 00:38:32;;;;;;;;;;;3.90;99.90;;;;;;4863627;29;19927;-72
2023/03/05 00:40:57;;;;;;;;;;;3.80;99.90;;;;;;4863651;29;19923;-71
2023/03/05 00:43:23;;;;;;;;;;;3.80;99.90;;;;;;4847121;29;19924;-71
2023/03/05 00:45:48;;;;;;;;;;;4.00;99.90;;;;;;4863653;29;19930;-71
2023/03/05 00:48:14;;;;;;;;;;;3.90;99.90;;;;;;4879621;29;20412;-70
2023/03/05 00:50:40;;;;;;;;;;;3.90;99.90;;;;;;4863340;29;19951;-71
2023/03/05 00:53:05;;;;;;;;;;;3.90;99.90;;;;;;4862787;29;19934;-74
2023/03/05 00:55:31;;;;;;;;;;;3.80;99.90;;;;;;4863341;29;19928;-71
2023/03/05 00:57:56;;;;;;;;;;;3.80;99.90;;;;;;4879685;29;19931;-71
2023/03/05 01:00:22;;;;;;;;;;;3.70;99.90;;;;;;4863025;29;19928;-71
2023/03/05 01:02:48;;;;;;;;;;;3.70;99.90;;;;;;4879518;29;19928;-70
2023/03/05 01:05:14;;;;;;;;;;;3.70;99.90;;;;;;4847101;29;19928;-70
2023/03/05 01:07:39;;;;;;;;;;;3.70;99.90;;;;;;4879663;29;19960;-71
2023/03/05 01:10:05;;;;;;;;;;;3.80;99.90;;;;;;4863327;29;19928;-71
2023/03/05 01:12:31;;;;;;;;;;;3.80;99.90;;;;;;4862773;29;19960;-72
2023/03/05 01:14:56;;;;;;;;;;;3.70;99.90;;;;;;4862961;29;20302;-72
2023/03/05 01:17:22;;;;;;;;;;;3.70;99.90;;;;;;4862725;29;19975;-71
2023/03/05 01:19:47;;;;;;;;;;;3.70;99.90;;;;;;4878676;29;19974;-71
2023/03/05 01:22:13;;;;;;;;;;;3.60;99.90;;;;;;4877750;29;19928;-71
2023/03/05 01:24:38;;;;;;;;;;;3.80;99.90;;;;;;4847274;29;20023;-72
2023/03/05 01:27:04;;;;;;;;;;;3.70;99.90;;;;;;4862712;29;19927;-72
2023/03/05 01:29:30;;;;;;;;;;;3.70;99.90;;;;;;4862625;29;19981;-71
2023/03/05 01:31:55;;;;;;;;;;;3.70;99.90;;;;;;4862872;29;19928;-71
2023/03/05 01:34:21;;;;;;;;;;;3.60;99.90;;;;;;4878880;29;19942;-71
2023/03/05 01:36:49;;;;;;;;;;;3.70;99.90;;;;;;4862678;29;19931;-71
2023/03/05 01:39:15;;;;;;;;;;;3.70;99.90;;;;;;4862166;29;20166;-71
2023/03/05 01:41:40;;;;;;;;;;;3.60;99.90;;;;;;4877844;29;19928;-71
2023/03/05 01:44:06;;;;;;;;;;;3.60;99.90;;;;;;4878920;29;19931;-71
2023/03/05 01:46:35;;;;;;;;;;;3.60;99.90;;;;;;4878575;29;19935;-71
2023/03/05 01:49:04;;;;;;;;;;;3.60;99.90;;;;;;4862454;29;19971;-72
2023/03/05 01:51:32;;;;;;;;;;;3.50;99.90;;;;;;4878514;29;19982;-71
2023/03/05 01:53:59;;;;;;;;;;;3.60;99.90;;;;;;4862459;29;20434;-71
2023/03/05 01:56:26;;;;;;;;;;;3.60;99.90;;;;;;4862158;29;19928;-71
2023/03/05 01:58:52;;;;;;;;;;;3.60;99.90;;;;;;4862513;29;19931;-71
2023/03/05 02:01:18;;;;;;;;;;;3.60;99.90;;;;;;4862100;29;19935;-72
2023/03/05 02:03:44;;;;;;;;;;;4.00;99.90;;;;;;4877870;29;19928;-72
2023/03/05 02:06:09;;;;;;;;;;;3.60;99.90;;;;;;4862313;29;19927;-72
2023/03/05 02:08:35;;;;;;;;;;;3.60;99.90;;;;;;4878090;29;19935;-72
2023/03/05 02:11:01;;;;;;;;;;;3.60;99.90;;;;;;4846923;29;20288;-71
2023/03/05 02:13:28;;;;;;;;;;;3.60;99.90;;;;;;4846752;29;19932;-72
2023/03/05 02:15:56;;;;;;;;;;;3.50;99.90;;;;;;4862246;29;20031;-72
2023/03/05 02:18:22;;;;;;;;;;;3.60;99.90;;;;;;4861839;29;19928;-71
2023/03/05 02:20:54;;;;;;;;;;;3.50;99.90;;;;;;4861847;29;20277;-72
2023/03/05 02:23:21;;;;;;;;;;;3.50;99.90;;;;;;4846065;29;20447;-72
2023/03/05 02:25:46;;;;;;;;;;;3.50;99.90;;;;;;4862076;29;20026;-71
2023/03/05 02:28:15;;;;;;;;;;;3.40;99.90;;;;;;4878507;29;20424;-73
2023/03/05 02:30:40;;;;;;;;;;;3.50;99.90;;;;;;4878218;29;20030;-71
2023/03/05 02:33:06;;;;;;;;;;;3.50;99.90;;;;;;4878369;29;19979;-71
2023/03/05 02:35:31;;;;;;;;;;;3.50;99.90;;;;;;4878099;29;19928;-71
2023/03/05 02:37:57;;;;;;;;;;;3.50;99.90;;;;;;4877471;29;19935;-71
2023/03/05 02:40:23;;;;;;;;;;;3.50;99.90;;;;;;4860927;29;19928;-72
2023/03/05 02:42:49;;;;;;;;;;;3.40;99.90;;;;;;4878431;29;19928;-73
2023/03/05 02:45:15;;;;;;;;;;;3.40;99.90;;;;;;4861949;29;19932;-72
2023/03/05 02:47:40;;;;;;;;;;;3.40;99.90;;;;;;4846441;29;19983;-70
2023/03/05 02:50:06;;;;;;;;;;;3.40;99.90;;;;;;4877304;29;19940;-71
2023/03/05 02:52:32;;;;;;;;;;;3.40;99.90;;;;;;4861168;29;20376;-70
2023/03/05 02:54:58;;;;;;;;;;;3.40;99.90;;;;;;4882143;29;19924;-72
2023/03/05 02:57:24;;;;;;;;;;;3.30;99.90;;;;;;4864950;29;19923;-73
2023/03/05 02:59:49;;;;;;;;;;;3.30;99.90;;;;;;4865461;29;20451;-71
2023/03/05 03:02:15;;;;;;;;;;;3.40;99.90;;;;;;4865155;29;19923;-70
2023/03/05 03:04:42;;;;;;;;;;;3.40;99.90;;;;;;4849729;29;19934;-72
2023/03/05 03:07:08;;;;;;;;;;;3.40;99.90;;;;;;4865128;29;19928;-71
2023/03/05 03:09:34;;;;;;;;;;;3.30;99.90;;;;;;4864874;29;19934;-71
2023/03/05 03:12:01;;;;;;;;;;;3.30;99.90;;;;;;4881110;29;19944;-71
2023/03/05 03:14:26;;;;;;;;;;;3.30;99.90;;;;;;4881282;29;19932;-72
2023/03/05 03:16:52;;;;;;;;;;;3.20;99.90;;;;;;4849950;29;19932;-71
2023/03/05 03:19:17;;;;;;;;;;;3.40;99.90;;;;;;4849938;29;19934;-71
2023/03/05 03:21:43;;;;;;;;;;;3.20;99.90;;;;;;4849074;29;19928;-71
2023/03/05 03:24:08;;;;;;;;;;;3.20;99.90;;;;;;4849704;29;19928;-72
2023/03/05 03:26:34;;;;;;;;;;;3.20;99.90;;;;;;4864772;29;19934;-71
2023/03/05 03:28:59;;;;;;;;;;;3.20;99.90;;;;;;4865003;29;19950;-71
2023/03/05 03:31:25;;;;;;;;;;;3.10;99.90;;;;;;4865049;29;20027;-71
2023/03/05 03:33:51;;;;;;;;;;;3.10;99.90;;;;;;4864759;29;20049;-70
2023/03/05 03:36:17;;;;;;;;;;;3.10;99.90;;;;;;4864698;29;19928;-71
2023/03/05 03:38:42;;;;;;;;;;;3.10;99.90;;;;;;4833778;29;20341;-70
2023/03/05 03:41:08;;;;;;;;;;;3.00;99.90;;;;;;4864756;29;19971;-71
2023/03/05 03:43:34;;;;;;;;;;;3.10;99.90;;;;;;4864001;29;20352;-71
2023/03/05 03:46:02;;;;;;;;;;;3.00;99.90;;;;;;4880744;29;20384;-72
2023/03/05 03:48:28;;;;;;;;;;;3.10;99.90;;;;;;4880767;29;19927;-72
2023/03/05 03:50:53;;;;;;;;;;;3.50;99.90;;;;;;4864658;29;20400;-73
2023/03/05 03:53:19;;;;;;;;;;;3.10;99.90;;;;;;4849248;29;20019;-72
2023/03/05 03:55:45;;;;;;;;;;;3.00;99.90;;;;;;4881018;29;19943;-72
2023/03/05 03:58:11;;;;;;;;;;;3.00;99.90;;;;;;4864554;29;19939;-71
2023/03/05 04:00:38;;;;;;;;;;;2.90;99.90;;;;;;4864070;29;20041;-71
2023/03/05 04:03:03;;;;;;;;;;;2.90;99.90;;;;;;4880782;29;19927;-71
2023/03/05 04:05:29;;;;;;;;;;;2.90;99.90;;;;;;4848231;29;19950;-71
2023/03/05 04:07:57;;;;;;;;;;;2.90;99.90;;;;;;4848685;29;19978;-75
2023/03/05 04:10:23;;;;;;;;;;;2.90;99.90;;;;;;4864399;29;19935;-71
2023/03/05 04:12:48;;;;;;;;;;;2.90;99.90;;;;;;4863720;29;19928;-71
2023/03/05 04:15:14;;;;;;;;;;;2.90;99.90;;;;;;4880632;29;19935;-71
2023/03/05 04:17:39;;;;;;;;;;;2.90;99.90;;;;;;4880349;29;19932;-73
2023/03/05 04:20:08;;;;;;;;;;;2.90;99.90;;;;;;4848760;29;19928;-72
2023/03/05 04:22:34;;;;;;;;;;;2.80;99.90;;;;;;4863651;29;19934;-72
2023/03/05 04:24:59;;;;;;;;;;;3.20;99.90;;;;;;4880372;29;20372;-71
2023/03/05 04:27:25;;;;;;;;;;;2.80;99.90;;;;;;4879510;29;19995;-71
2023/03/05 04:29:50;;;;;;;;;;;2.80;99.90;;;;;;4863620;29;19987;-71
2023/03/05 04:32:21;;;;;;;;;;;2.90;99.90;;;;;;4848616;29;20397;-71
2023/03/05 04:34:47;;;;;;;;;;;2.90;99.90;;;;;;4848147;29;20023;-71
2023/03/05 04:37:13;;;;;;;;;;;2.90;99.90;;;;;;4863787;29;20006;-71
2023/03/05 04:39:38;;;;;;;;;;;3.00;99.90;;;;;;4832941;29;19935;-71
2023/03/05 04:42:04;;;;;;;;;;;2.90;99.90;;;;;;4879825;29;19931;-72
2023/03/05 04:44:30;;;;;;;;;;;3.00;99.90;;;;;;4863648;29;19928;-72
2023/03/05 04:46:55;;;;;;;;;;;3.00;99.90;;;;;;4863192;29;20156;-72
2023/03/05 04:49:21;;;;;;;;;;;3.00;99.90;;;;;;4863529;29;20130;-72
2023/03/05 04:51:46;;;;;;;;;;;3.10;99.90;;;;;;4847857;29;19936;-72
2023/03/05 04:54:12;;;;;;;;;;;3.10;99.90;;;;;;4863613;29;19935;-72
2023/03/05 04:56:37;;;;;;;;;;;3.20;99.90;;;;;;4847812;29;19932;-74
2023/03/05 04:59:03;;;;;;;;;;;3.10;99.90;;;;;;4863358;29;19940;-72
2023/03/05 05:01:29;;;;;;;;;;;3.10;99.90;;;;;;4847497;29;20001;-74
2023/03/05 05:03:54;;;;;;;;;;;3.10;99.90;;;;;;4862810;29;20336;-72
2023/03/05 05:06:20;;;;;;;;;;;3.10;99.90;;;;;;4862836;29;19928;-71
2023/03/05 05:08:45;;;;;;;;;;;3.00;99.90;;;;;;4862438;29;19927;-70
2023/03/05 05:11:11;;;;;;;;;;;3.00;99.90;;;;;;4879650;29;19991;-71
2023/03/05 05:13:37;;;;;;;;;;;3.00;99.90;;;;;;4878588;29;19928;-73
2023/03/05 05:16:05;;;;;;;;;;;3.00;99.90;;;;;;4861909;29;20341;-72
2023/03/05 05:18:30;;;;;;;;;;;3.10;99.90;;;;;;4862556;29;19932;-71
2023/03/05 05:20:56;;;;;;;;;;;3.10;99.90;;;;;;4847176;29;19938;-72
2023/03/05 05:23:21;;;;;;;;;;;3.00;99.90;;;;;;4847241;29;20337;-72
2023/03/05 05:25:54;;;;;;;;;;;3.20;99.90;;;;;;4878494;29;19928;-71
2023/03/05 05:28:20;;;;;;;;;;;3.00;99.90;;;;;;4862657;29;19924;-71
2023/03/05 05:30:45;;;;;;;;;;;2.90;99.90;;;;;;4862107;29;19950;-71
2023/03/05 05:33:11;;;;;;;;;;;3.00;99.90;;;;;;4879537;29;20356;-72
2023/03/05 05:35:38;;;;;;;;;;;2.90;99.90;;;;;;4878069;29;19941;-72
2023/03/05 05:38:03;;;;;;;;;;;2.90;99.90;;;;;;4846798;29;19928;-74
2023/03/05 05:40:31;;;;;;;;;;;2.90;99.90;;;;;;4861854;29;20162;-72
2023/03/05 05:42:56;;;;;;;;;;;2.80;99.90;;;;;;4877251;29;19928;-71
2023/03/05 05:45:22;;;;;;;;;;;2.80;99.90;;;;;;4862369;29;19927;-72
2023/03/05 05:47:48;;;;;;;;;;;2.70;99.90;;;;;;4862137;29;19986;-72
2023/03/05 05:50:14;;;;;;;;;;;2.70;99.90;;;;;;4862133;29;20403;-72
2023/03/05 05:52:39;;;;;;;;;;;2.70;99.90;;;;;;4862466;29;19927;-71
2023/03/05 05:55:05;;;;;;;;;;;2.70;99.90;;;;;;4846906;29;20353;-71
2023/03/05 05:57:31;;;;;;;;;;;2.60;99.90;;;;;;4862538;29;19931;-73
2023/03/05 05:59:56;;;;;;;;;;;2.60;99.90;;;;;;4877502;29;19931;-72
2023/03/05 06:02:22;;;;;;;;;;;2.60;99.90;;;;;;4877504;29;19928;-72
2023/03/05 06:04:47;;;;;;;;;;;2.60;99.90;;;;;;4878288;29;19928;-72
2023/03/05 06:07:13;;;;;;;;;;;2.60;99.90;;;;;;4862186;29;19935;-72
2023/03/05 06:09:38;;;;;;;;;;;2.50;99.90;;;;;;4862345;29;19936;-72
2023/03/05 06:12:04;;;;;;;;;;;2.60;99.90;;;;;;4846444;29;20269;-71
2023/03/05 06:14:30;;;;;;;;;;;2.60;99.90;;;;;;4846751;29;19928;-73
2023/03/05 06:16:55;;;;;;;;;;;2.50;99.90;;;;;;4861727;29;20394;-72
2023/03/05 06:19:21;;;;;;;;;;;2.50;99.90;;;;;;4878172;29;20015;-72
2023/03/05 06:21:46;;;;;;;;;;;2.50;99.90;;;;;;4830969;29;19935;-72
2023/03/05 06:24:12;;;;;;;;;;;2.60;99.90;;;;;;4861915;29;20019;-71
2023/03/05 06:26:38;;;;;;;;;;;2.60;99.90;;;;;;4862221;29;20435;-71
2023/03/05 06:29:04;;;;;;;;;;;2.70;99.90;;;;;;4850594;29;19928;-72
2023/03/05 06:31:29;;;;;;;;;;;2.60;99.90;;;;;;4868293;29;19928;-72
2023/03/05 06:33:56;;;;;;;;;;;2.70;99.90;;;;;;4867739;29;19928;-71
2023/03/05 06:36:23;;;;;;;;;;;2.60;99.90;;;;;;4867966;29;19960;-70
2023/03/05 06:38:49;;;;;;;;;;;2.70;99.90;;;;;;4884331;29;19928;-71
2023/03/05 06:41:16;;;;;;;;;;;2.80;99.90;;;;;;4867467;29;20292;-71
2023/03/05 06:43:42;;;;;;;;;;;2.80;99.90;;;;;;4864522;29;19984;-71
2023/03/05 06:46:10;;;;;;;;;;;2.80;99.90;;;;;;4879941;29;19928;-71
2023/03/05 06:48:36;;;;;;;;;;;2.80;99.90;;;;;;4849524;29;19928;-72
2023/03/05 06:51:02;;;;;;;;;;;2.80;99.90;;;;;;4864218;29;19981;-72
2023/03/05 06:53:27;;;;;;;;;;;2.90;99.90;;;;;;4849141;29;19928;-73
2023/03/05 06:55:53;;;;;;;;;;;2.90;99.90;;;;;;4864274;29;19932;-72
2023/03/05 06:58:19;;;;;;;;;;;2.90;99.90;;;;;;4865020;29;19928;-72
2023/03/05 07:00:45;;;;;;;;;;;2.90;99.90;;;;;;4864141;29;20323;-60
2023/03/05 07:03:10;;;;;;;;;;;2.90;99.90;;;;;;4879589;29;19928;-60
2023/03/05 07:05:40;;;;;;;;;;;3.00;99.90;;;;;;4879976;29;19932;-61
2023/03/05 07:08:05;;;;;;;;;;;3.00;99.90;;;;;;4864490;29;19939;-62
2023/03/05 07:10:31;;;;;;;;;;;3.10;99.90;;;;;;4864862;29;19932;-62
2023/03/05 07:12:57;;;;;;;;;;;3.10;99.90;;;;;;4864038;29;19928;-62
2023/03/05 07:15:23;;;;;;;;;;;3.20;99.90;;;;;;4865324;29;19935;-62
2023/03/05 07:17:49;;;;;;;;;;;3.10;99.90;;;;;;4865710;29;19928;-61
2023/03/05 07:20:14;;;;;;;;;;;3.20;99.90;;;;;;4879745;29;19928;-61
2023/03/05 07:22:40;;;;;;;;;;;3.30;99.90;;;;;;4865377;29;19928;-61
2023/03/05 07:25:05;;;;;;;;;;;3.30;99.90;;;;;;4864984;29;20420;-61
2023/03/05 07:27:37;;;;;;;;;;;3.50;99.90;;;;;;4864401;29;19928;-60
2023/03/05 07:30:03;;;;;;;;;;;3.50;99.90;;;;;;4865198;29;20403;-60
2023/03/05 07:32:29;;;;;;;;;;;3.50;99.90;;;;;;4865610;29;19932;-61
2023/03/05 07:34:54;;;;;;;;;;;3.50;99.90;;;;;;4865667;29;20327;-60
2023/03/05 07:37:20;;;;;;;;;;;3.60;99.90;;;;;;4879538;29;19935;-62
2023/03/05 07:39:45;;;;;;;;;;;3.60;99.90;;;;;;4861595;29;19932;-61
2023/03/05 07:42:11;;;;;;;;;;;3.60;99.90;;;;;;4867167;29;19932;-61
2023/03/05 07:44:37;;;;;;;;;;;3.60;99.90;;;;;;4864120;29;19935;-61
2023/03/05 07:47:03;;;;;;;;;;;3.60;99.90;;;;;;4864073;29;19979;-61
2023/03/05 07:49:29;;;;;;;;;;;3.60;99.90;;;;;;4881108;29;20332;-61
2023/03/05 07:51:54;;;;;;;;;;;3.70;99.90;;;;;;4881142;29;20409;-62
2023/03/05 07:54:20;;;;;;;;;;;3.60;99.90;;;;;;4880625;29;19928;-60
2023/03/05 07:56:46;;;;;;;;;;;3.80;99.90;;;;;;4864286;29;19936;-61
2023/03/05 07:59:12;;;;;;;;;;;3.80;99.90;;;;;;4880215;29;20236;-61
2023/03/05 08:01:37;;;;;;;;;;;4.00;99.90;;;;;;4880879;29;19935;-61
2023/03/05 08:04:04;;;;;;;;;;;4.00;99.90;;;;;;4880496;29;20337;-62
2023/03/05 08:06:30;;;;;;;;;;;4.20;99.90;;;;;;4863993;29;19928;-61
2023/03/05 08:08:56;;;;;;;;;;;4.40;99.90;;;;;;4880709;29;19927;-61
2023/03/05 08:11:21;;;;;;;;;;;4.80;99.90;;;;;;4863865;29;20337;-61
2023/03/05 08:13:47;;;;;;;;;;;5.00;99.90;;;;;;4880661;29;19983;-60
2023/03/05 08:16:17;;;;;;;;;;;5.10;99.90;;;;;;4863771;29;20011;-62
2023/03/05 08:18:43;;;;;;;;;;;5.30;99.90;;;;;;4880442;29;19935;-62
2023/03/05 08:21:15;;;;;;;;;;;5.60;99.90;;;;;;4879136;29;20372;-61
2023/03/05 08:23:41;;;;;;;;;;;5.80;99.90;;;;;;4863506;29;20018;-62
2023/03/05 08:26:10;;;;;;;;;;;6.00;99.90;;;;;;4879914;29;20015;-61
2023/03/05 08:28:36;;;;;;;;;;;6.30;99.90;;;;;;4880392;29;19995;-61
2023/03/05 08:31:06;;;;;;;;;;;6.70;99.90;;;;;;4863643;29;20396;-61
2023/03/05 08:33:32;;;;;;;;;;;7.10;99.90;;;;;;4863661;29;19927;-61
2023/03/05 08:35:58;;;;;;;;;;;7.70;99.90;;;;;;4880355;29;19928;-61
2023/03/05 08:38:23;;;;;;;;;;;8.50;99.90;;;;;;4863333;29;19979;-61
2023/03/05 08:40:49;;;;;;;;;;;9.00;99.90;;;;;;4879955;29;20018;-60
2023/03/05 08:43:16;;;;;;;;;;;9.30;99.90;;;;;;4847596;29;20030;-61
2023/03/05 08:45:41;;;;;;;;;;;9.10;99.90;;;;;;4877911;29;20018;-60
2023/03/05 08:48:07;;;;;;;;;;;8.80;99.90;;;;;;4879590;29;20011;-60
2023/03/05 08:50:34;;;;;;;;;;;8.50;99.90;;;;;;4862853;29;20264;-61
2023/03/05 08:53:00;;;;;;;;;;;8.10;99.90;;;;;;4879885;29;20114;-60
2023/03/05 08:55:25;;;;;;;;;;;7.80;99.90;;;;;;4879709;29;19935;-62
2023/03/05 08:57:51;;;;;;;;;;;7.60;99.90;;;;;;4879707;29;19940;-61
2023/03/05 09:00:17;;;;;;;;;;;7.50;99.90;;;;;;4879366;29;19931;-62
2023/03/05 09:02:42;;;;;;;;;;;7.40;99.90;;;;;;4879535;29;19932;-61
2023/03/05 09:05:08;;;;;;;;;;;7.30;99.90;;;;;;4879283;29;19928;-62
2023/03/05 09:07:34;;;;;;;;;;;7.10;99.90;;;;;;4862424;29;19928;-61
2023/03/05 09:09:59;;;;;;;;;;;6.80;99.90;;;;;;4879348;29;19927;-61
2023/03/05 09:12:25;;;;;;;;;;;6.50;99.90;;;;;;4879011;29;19928;-61
2023/03/05 09:14:53;;;;;;;;;;;6.20;99.90;;;;;;4879728;29;19966;-61
2023/03/05 09:17:18;;;;;;;;;;;6.00;99.90;;;;;;4878936;29;19984;-61
2023/03/05 09:19:44;;;;;;;;;;;5.80;99.90;;;;;;4879345;29;20352;-60
2023/03/05 09:22:09;;;;;;;;;;;5.80;99.90;;;;;;4879121;29;19928;-61
2023/03/05 09:24:35;;;;;;;;;;;5.80;99.90;;;;;;4862300;29;20258;-62
2023/03/05 09:27:00;;;;;;;;;;;5.90;99.90;;;;;;4878974;29;19928;-61
2023/03/05 09:29:26;;;;;;;;;;;6.10;99.90;;;;;;4862087;29;19978;-61
2023/03/05 09:31:52;;;;;;;;;;;6.30;99.90;;;;;;4862537;29;19935;-61
2023/03/05 09:34:17;;;;;;;;;;;6.50;99.90;;;;;;4878677;29;19928;-64
2023/03/05 09:36:43;;;;;;;;;;;6.70;99.90;;;;;;4879116;29;19928;-61
2023/03/05 09:39:08;;;;;;;;;;;6.80;99.90;;;;;;4879276;29;20380;-62
2023/03/05 09:41:46;;;;;;;;;;;7.00;99.90;;;;;;4878798;29;19928;-62
2023/03/05 09:44:31;;;;;;;;;;;7.10;99.90;;;;;;4879260;29;19928;-61
2023/03/05 09:47:08;;;;;;;;;;;7.10;99.90;;;;;;4879034;29;19931;-61
2023/03/05 09:49:42;;;;;;;;;;;7.20;99.90;;;;;;4846771;29;19928;-61
2023/03/05 09:52:15;;;;;;;;;;;7.30;99.90;;;;;;4879066;29;19963;-62
2023/03/05 09:54:42;;;;;;;;;;;7.40;99.90;;;;;;4878611;29;20380;-60
2023/03/05 09:57:13;;;;;;;;;;;7.50;99.90;;;;;;4847132;29;20284;-61
2023/03/05 09:59:45;;;;;;;;;;;7.60;99.90;;;;;;4862183;29;20015;-60
2023/03/05 10:02:13;;;;;;;;;;;7.60;99.90;;;;;;4878490;29;20018;-61
2023/03/05 10:04:39;;;;;;;;;;;7.50;99.90;;;;;;4861922;29;19928;-61
2023/03/05 10:07:14;;;;;;;;;;;7.50;99.90;;;;;;4878658;29;20337;-61
2023/03/05 10:09:46;;;;;;;;;;;7.50;99.90;;;;;;4878522;29;19934;-60
2023/03/05 10:12:19;;;;;;;;;;;7.30;99.90;;;;;;4861966;29;19935;-60
2023/03/05 10:14:45;;;;;;;;;;;7.20;99.90;;;;;;4861880;29;19928;-61
2023/03/05 10:17:30;;;;;;;;;;;7.00;99.90;;;;;;4862341;29;20305;-60
2023/03/05 10:20:03;;;;;;;;;;;6.90;99.90;;;;;;4878345;29;19984;-61
2023/03/05 10:22:32;;;;;;;;;;;6.80;99.90;;;;;;4878013;29;20303;-61
2023/03/05 10:25:06;;;;;;;;;;;6.90;99.90;;;;;;4878154;29;19935;-62
2023/03/05 10:27:35;;;;;;;;;;;6.90;99.90;;;;;;4878316;29;20010;-61
2023/03/05 10:30:12;;;;;;;;;;;6.90;99.90;;;;;;4878529;29;19935;-61
2023/03/05 10:32:49;;;;;;;;;;;6.90;99.90;;;;;;4878413;29;19927;-61
2023/03/05 10:35:17;;;;;;;;;;;6.90;99.90;;;;;;4861909;29;20027;-62
2023/03/05 10:38:02;;;;;;;;;;;6.90;99.90;;;;;;4878090;29;20406;-62
2023/03/05 10:40:31;;;;;;;;;;;6.90;99.90;;;;;;4878439;29;19927;-62
2023/03/05 10:43:09;;;;;;;;;;;6.90;99.90;;;;;;4861517;29;19938;-62
2023/03/05 10:45:40;;;;;;;;;;;7.00;99.90;;;;;;4878112;29;19935;-62
2023/03/05 10:48:26;;;;;;;;;;;7.10;99.90;;;;;;4878429;29;20105;-62
2023/03/05 10:51:10;;;;;;;;;;;7.10;99.90;;;;;;4831520;29;19928;-62
2023/03/05 10:53:56;;;;;;;;;;;7.10;99.90;;;;;;4877907;29;19932;-61
2023/03/05 10:56:24;;;;;;;;;;;7.10;99.90;;;;;;4877577;29;19928;-61
2023/03/05 10:58:51;;;;;;;;;;;7.20;99.90;;;;;;4877796;29;19935;-61
2023/03/05 11:01:17;;;;;;;;;;;7.40;99.90;;;;;;4878221;29;20023;-62
2023/03/05 11:03:45;;;;;;;;;;;7.40;99.90;;;;;;4877728;29;20026;-62
2023/03/05 11:06:11;;;;;;;;;;;7.50;99.90;;;;;;4878165;29;19952;-62
2023/03/05 11:08:37;;;;;;;;;;;7.70;99.90;;;;;;4877517;29;19924;-61
2023/03/05 11:11:09;;;;;;;;;;;7.90;99.90;;;;;;4861330;29;20225;-61
2023/03/05 11:13:35;;;;;;;;;;;7.90;99.90;;;;;;4877558;29;20008;-62
2023/03/05 11:16:03;;;;;;;;;;;7.90;99.90;;;;;;4864919;29;19987;-60
2023/03/05 11:18:36;;;;;;;;;;;7.90;99.90;;;;;;4865137;29;19987;-61
2023/03/05 11:21:06;;;;;;;;;;;7.90;99.90;;;;;;4865005;29;19932;-63
2023/03/05 11:23:32;;;;;;;;;;;7.90;99.90;;;;;;4880566;29;20392;-62
2023/03/05 11:26:16;;;;;;;;;;;8.00;99.90;;;;;;4864429;29;19927;-62
2023/03/05 11:28:51;;;;;;;;;;;8.10;99.90;;;;;;4861203;29;20427;-63
2023/03/05 11:31:17;;;;;;;;;;;8.10;99.90;;;;;;4880393;29;19987;-61
2023/03/05 11:33:51;;;;;;;;;;;8.00;99.90;;;;;;4880312;29;20010;-62
2023/03/05 11:36:23;;;;;;;;;;;7.80;99.90;;;;;;4864817;29;19928;-61
2023/03/05 11:38:51;;;;;;;;;;;7.70;99.90;;;;;;4880400;29;20004;-61
2023/03/05 11:41:18;;;;;;;;;;;7.80;99.90;;;;;;4880918;29;19932;-62
2023/03/05 11:43:44;;;;;;;;;;;7.60;99.90;;;;;;4880485;29;19927;-62
2023/03/05 11:46:11;;;;;;;;;;;7.60;99.90;;;;;;4864154;29;19935;-62
2023/03/05 11:48:38;;;;;;;;;;;7.60;99.90;;;;;;4863853;29;19932;-64
2023/03/05 11:51:09;;;;;;;;;;;7.70;99.90;;;;;;4880697;29;19928;-61
2023/03/05 11:53:37;;;;;;;;;;;7.80;99.90;;;;;;4863826;29;19928;-63
2023/03/05 11:56:04;;;;;;;;;;;7.70;99.90;;;;;;4864257;29;19928;-61
2023/03/05 11:58:36;;;;;;;;;;;7.70;99.90;;;;;;4864340;29;19932;-62
2023/03/05 12:01:02;;;;;;;;;;;7.70;99.90;;;;;;4880347;29;20023;-63
2023/03/05 12:03:30;;;;;;;;;;;7.80;99.90;;;;;;4880679;29;20011;-61
2023/03/05 12:05:58;;;;;;;;;;;7.70;99.90;;;;;;4880536;29;20226;-62
2023/03/05 12:08:31;;;;;;;;;;;7.70;99.90;;;;;;4880639;29;20035;-62
2023/03/05 12:10:58;;;;;;;;;;;7.60;99.90;;;;;;4880121;29;19938;-61
2023/03/05 12:13:28;;;;;;;;;;;7.60;99.90;;;;;;4864164;29;19939;-62
2023/03/05 12:16:11;;;;;;;;;;;7.70;99.90;;;;;;4879777;29;19931;-61
2023/03/05 12:18:37;;;;;;;;;;;7.80;99.90;;;;;;4880360;29;19932;-62
2023/03/05 12:21:07;;;;;;;;;;;8.10;99.90;;;;;;4862848;29;19928;-61
2023/03/05 12:23:45;;;;;;;;;;;8.20;99.90;;;;;;4880218;29;19934;-61
2023/03/05 12:26:10;;;;;;;;;;;8.30;99.90;;;;;;4879434;29;19935;-62
2023/03/05 12:28:44;;;;;;;;;;;8.20;99.90;;;;;;4880087;29;19954;-62
2023/03/05 12:31:27;;;;;;;;;;;8.00;99.90;;;;;;4880024;29;19928;-62
2023/03/05 12:33:53;;;;;;;;;;;7.80;99.90;;;;;;4848135;29;19928;-61
2023/03/05 12:36:22;;;;;;;;;;;7.60;99.90;;;;;;4863427;29;20263;-62
2023/03/05 12:38:50;;;;;;;;;;;7.60;99.90;;;;;;4879702;29;19927;-62
2023/03/05 12:41:22;;;;;;;;;;;7.60;99.90;;;;;;4879339;29;20289;-62
2023/03/05 12:44:06;;;;;;;;;;;7.70;99.90;;;;;;4847310;29;19927;-62
2023/03/05 12:46:35;;;;;;;;;;;7.70;99.90;;;;;;4862455;29;19936;-62
2023/03/05 12:49:16;;;;;;;;;;;7.80;99.90;;;;;;4846623;29;19939;-63
2023/03/05 12:51:42;;;;;;;;;;;7.80;99.90;;;;;;4878834;29;19934;-63
2023/03/05 12:54:20;;;;;;;;;;;7.80;99.90;;;;;;4861876;29;20280;-63
2023/03/05 12:56:46;;;;;;;;;;;7.90;99.90;;;;;;4861810;29;19980;-64
2023/03/05 12:59:13;;;;;;;;;;;7.90;99.90;;;;;;4877638;29;19928;-62
2023/03/05 13:01:49;;;;;;;;;;;8.00;99.90;;;;;;4878623;29;19935;-62
2023/03/05 13:04:16;;;;;;;;;;;8.10;99.90;;;;;;4878561;29;19992;-61
2023/03/05 13:06:41;;;;;;;;;;;8.20;99.90;;;;;;4878213;29;19935;-61
2023/03/05 13:09:17;;;;;;;;;;;8.20;99.90;;;;;;4843585;29;19927;-64
2023/03/05 13:11:45;;;;;;;;;;;8.30;99.90;;;;;;4876725;29;20376;-62
2023/03/05 13:14:29;;;;;;;;;;;8.40;99.90;;;;;;4877646;29;20027;-64
2023/03/05 13:16:54;;;;;;;;;;;8.40;99.90;;;;;;4861100;29;19934;-63
2023/03/05 13:19:21;;;;;;;;;;;8.20;99.90;;;;;;4877166;29;19928;-65
2023/03/05 13:21:56;;;;;;;;;;;8.10;99.90;;;;;;4877853;29;19938;-66
2023/03/05 13:24:21;;;;;;;;;;;7.90;99.90;;;;;;4878058;29;20038;-64
2023/03/05 13:26:47;;;;;;;;;;;8.00;99.90;;;;;;4861576;29;20153;-65
2023/03/05 13:29:17;;;;;;;;;;;8.00;99.90;;;;;;4877606;29;19924;-63
2023/03/05 13:31:44;;;;;;;;;;;8.10;99.90;;;;;;4861608;29;20003;-63
2023/03/05 13:34:13;;;;;;;;;;;8.10;99.90;;;;;;4876968;29;20307;-62
2023/03/05 13:36:39;;;;;;;;;;;8.00;99.90;;;;;;4877731;29;20026;-63
2023/03/05 13:39:06;;;;;;;;;;;8.00;99.90;;;;;;4876646;29;20018;-62
2023/03/05 13:41:32;;;;;;;;;;;7.90;99.90;;;;;;4877445;29;19924;-63
2023/03/05 13:43:59;;;;;;;;;;;7.90;99.90;;;;;;4857905;29;19935;-61
2023/03/05 13:46:37;;;;;;;;;;;7.80;99.90;;;;;;4858818;29;20353;-62
2023/03/05 13:49:17;;;;;;;;;;;7.80;99.90;;;;;;4859088;29;19944;-62
2023/03/05 13:51:44;;;;;;;;;;;7.70;99.90;;;;;;4858826;29;19928;-62
2023/03/05 13:54:13;;;;;;;;;;;7.70;99.90;;;;;;4858987;29;19928;-63
2023/03/05 13:56:47;;;;;;;;;;;7.80;99.90;;;;;;4859424;29;20329;-63
2023/03/05 13:59:17;;;;;;;;;;;7.80;99.90;;;;;;4856273;29;19928;-62
2023/03/05 14:01:44;;;;;;;;;;;7.70;99.90;;;;;;4857632;29;19984;-63
2023/03/05 14:04:12;;;;;;;;;;;7.80;99.90;;;;;;4858741;29;19924;-62
2023/03/05 14:06:55;;;;;;;;;;;7.80;99.90;;;;;;4858025;29;20372;-63
2023/03/05 14:09:20;;;;;;;;;;;7.80;99.90;;;;;;4857641;29;19928;-62
2023/03/05 14:12:00;;;;;;;;;;;7.70;99.90;;;;;;4858069;29;20284;-63
2023/03/05 14:14:27;;;;;;;;;;;7.70;99.90;;;;;;4872955;29;19931;-62
2023/03/05 14:16:52;;;;;;;;;;;7.60;99.90;;;;;;4858924;29;19928;-63
2023/03/05 14:19:35;;;;;;;;;;;7.50;99.90;;;;;;4872682;29;19928;-63
2023/03/05 14:22:01;;;;;;;;;;;7.50;99.90;;;;;;4858109;29;20383;-63
2023/03/05 14:24:30;;;;;;;;;;;7.50;99.90;;;;;;4858613;29;19924;-64
2023/03/05 14:26:57;;;;;;;;;;;7.40;99.90;;;;;;4858261;29;20380;-65
2023/03/05 14:29:24;;;;;;;;;;;7.40;99.90;;;;;;4857573;29;20353;-64
2023/03/05 14:32:02;;;;;;;;;;;7.50;99.90;;;;;;4858152;29;20202;-63
2023/03/05 14:34:30;;;;;;;;;;;7.50;99.90;;;;;;4858595;29;20019;-62